createdAt,value
2022-12-23T00:00:44.069Z,36.42
2022-12-23T00:03:11.890Z,37.28
2022-12-23T00:05:40.541Z,42.15
2022-12-23T00:08:08.563Z,44.75
2022-12-23T00:10:39.882Z,41.38
2022-12-23T00:13:27.393Z,40.38
2022-12-23T00:16:14.899Z,37.03
2022-12-23T00:18:43.455Z,38.03
2022-12-23T00:21:14.808Z,37.53
2022-12-23T00:23:46.171Z,37.95
2022-12-23T00:26:16.733Z,39.20
2022-12-23T00:28:44.340Z,41.10
2022-12-23T00:31:12.657Z,37.20
2022-12-23T00:33:51.080Z,37.72
2022-12-23T00:36:29.918Z,36.03
2022-12-23T00:39:17.752Z,34.47
2022-12-23T00:42:04.091Z,34.95
2022-12-23T00:44:31.671Z,31.50
2022-12-23T00:46:59.013Z,36.65
2022-12-23T00:49:44.663Z,38.10
2022-12-23T00:52:15.753Z,39.83
2022-12-23T00:54:43.238Z,39.65
2022-12-23T00:57:10.859Z,33.42
2022-12-23T00:59:39.000Z,37.90
2022-12-23T01:02:24.780Z,38.13
2022-12-23T01:05:10.891Z,38.70
2022-12-23T01:07:38.088Z,39.58
2022-12-23T01:10:05.611Z,39.42
2022-12-23T01:12:32.773Z,43.88
2022-12-23T01:14:59.808Z,50.13
2022-12-23T01:17:26.960Z,40.65
2022-12-23T01:19:54.073Z,46.47
2022-12-23T01:22:21.067Z,40.47
2022-12-23T01:24:51.299Z,42.53
2022-12-23T01:27:18.757Z,43.45
2022-12-23T01:29:46.508Z,41.45
2022-12-23T01:32:14.560Z,41.58
2022-12-23T01:34:41.629Z,46.90
2022-12-23T01:37:08.704Z,43.67
2022-12-23T01:39:35.910Z,46.47
2022-12-23T01:42:21.503Z,43.00
2022-12-23T01:45:12.893Z,46.23
2022-12-23T01:48:12.001Z,41.25
2022-12-23T01:50:48.490Z,44.20
2022-12-23T01:53:21.457Z,45.58
2022-12-23T01:56:00.057Z,41.67
2022-12-23T01:58:45.319Z,43.42
2022-12-23T02:01:31.647Z,41.42
2022-12-23T02:04:10.375Z,41.35
2022-12-23T02:06:59.832Z,39.38
2022-12-23T02:09:34.518Z,38.03
2022-12-23T02:12:27.273Z,39.90
2022-12-23T02:15:53.347Z,40.50
2022-12-23T02:18:51.580Z,39.30
2022-12-23T02:21:36.679Z,36.72
2022-12-23T02:24:31.812Z,38.00
2022-12-23T02:27:30.445Z,35.83
2022-12-23T02:30:38.027Z,37.63
2022-12-23T02:35:58.169Z,37.88
2022-12-23T02:38:35.002Z,38.97
2022-12-23T02:41:15.752Z,36.22
2022-12-23T02:43:54.258Z,37.65
2022-12-23T02:46:37.037Z,36.58
2022-12-23T02:49:29.334Z,34.83
2022-12-23T02:52:01.909Z,32.80
2022-12-23T02:54:34.208Z,31.85
2022-12-23T02:57:05.011Z,30.08
2022-12-23T02:59:43.610Z,30.92
2022-12-23T03:02:10.927Z,29.73
2022-12-23T03:04:38.374Z,32.53
2022-12-23T03:07:07.821Z,30.30
2022-12-23T03:09:44.703Z,32.28
2022-12-23T03:12:41.441Z,29.77
2022-12-23T03:15:23.432Z,30.17
2022-12-23T03:18:16.640Z,30.05
2022-12-23T03:21:14.798Z,31.52
2022-12-23T03:24:35.813Z,35.20
2022-12-23T03:27:33.560Z,32.83
2022-12-23T03:30:05.481Z,34.22
2022-12-23T03:32:56.125Z,35.42
2022-12-23T03:35:35.405Z,35.38
2022-12-23T03:38:04.726Z,36.25
2022-12-23T03:40:38.778Z,34.42
2022-12-23T03:43:12.511Z,37.08
2022-12-23T03:45:47.844Z,34.97
2022-12-23T03:48:36.964Z,33.70
2022-12-23T03:51:14.506Z,33.67
2022-12-23T03:54:00.065Z,33.72
2022-12-23T03:56:42.539Z,32.95
2022-12-23T03:59:20.345Z,33.53
2022-12-23T04:02:30.549Z,33.85
2022-12-23T04:05:16.791Z,34.00
2022-12-23T04:07:55.100Z,33.30
2022-12-23T04:10:23.681Z,33.72
2022-12-23T04:12:51.474Z,33.05
2022-12-23T04:15:24.681Z,31.20
2022-12-23T04:17:53.570Z,32.40
2022-12-23T04:20:20.848Z,31.08
2022-12-23T04:22:48.214Z,30.90
2022-12-23T04:25:17.557Z,29.48
2022-12-23T04:27:44.785Z,29.60
2022-12-23T04:30:16.497Z,30.52
2022-12-23T04:32:43.740Z,29.40
2022-12-23T04:35:12.547Z,26.92
2022-12-23T04:37:40.013Z,27.20
2022-12-23T04:40:08.051Z,26.95
2022-12-23T04:42:35.686Z,24.85
2022-12-23T04:45:03.771Z,27.33
2022-12-23T04:47:30.912Z,26.52
2022-12-23T04:50:00.883Z,24.70
2022-12-23T04:52:28.051Z,25.55
2022-12-23T04:54:55.083Z,25.83
2022-12-23T04:57:22.397Z,25.48
2022-12-23T04:59:49.537Z,26.10
2022-12-23T05:02:16.740Z,23.75
2022-12-23T05:04:43.996Z,24.38
2022-12-23T05:07:11.111Z,23.55
2022-12-23T05:09:38.199Z,25.23
2022-12-23T05:12:05.496Z,22.90
2022-12-23T05:14:32.723Z,24.95
2022-12-23T05:17:06.980Z,23.27
2022-12-23T05:19:35.397Z,25.90
2022-12-23T05:22:02.436Z,24.90
2022-12-23T05:24:29.524Z,26.40
2022-12-23T05:27:00.136Z,26.30
2022-12-23T05:29:28.391Z,27.00
2022-12-23T05:31:56.094Z,27.42
2022-12-23T05:34:23.282Z,27.55
2022-12-23T05:36:50.322Z,28.85
2022-12-23T05:39:17.372Z,28.75
2022-12-23T05:41:45.832Z,27.98
2022-12-23T05:44:12.840Z,26.38
2022-12-23T05:46:40.064Z,26.25
2022-12-23T05:49:07.366Z,27.65
2022-12-23T05:51:34.542Z,27.90
2022-12-23T05:54:01.624Z,27.30
2022-12-23T05:56:28.711Z,28.05
2022-12-23T05:58:55.877Z,32.55
2022-12-23T06:01:22.975Z,29.08
2022-12-23T06:03:50.032Z,30.10
2022-12-23T06:06:17.455Z,36.05
2022-12-23T06:08:44.596Z,38.72
2022-12-23T06:11:12.958Z,42.15
2022-12-23T06:13:39.980Z,42.65
2022-12-23T06:16:07.381Z,37.20
2022-12-23T06:18:34.514Z,33.63
2022-12-23T06:21:01.612Z,43.63
2022-12-23T06:23:28.762Z,37.65
2022-12-23T06:26:01.170Z,33.13
2022-12-23T06:28:29.386Z,39.22
2022-12-23T06:30:57.531Z,25.42
2022-12-23T06:33:25.376Z,28.38
2022-12-23T06:35:52.653Z,32.83
2022-12-23T06:38:19.758Z,33.00
2022-12-23T06:40:46.930Z,31.13
2022-12-23T06:43:14.643Z,29.90
2022-12-23T06:45:46.598Z,33.75
2022-12-23T06:48:13.801Z,30.65
2022-12-23T06:50:41.066Z,32.20
2022-12-23T06:53:08.966Z,33.10
2022-12-23T06:55:36.162Z,33.85
2022-12-23T06:58:03.575Z,43.10
2022-12-23T07:00:30.909Z,40.13
2022-12-23T07:02:58.388Z,35.30
2022-12-23T07:05:25.559Z,36.72
2022-12-23T07:07:52.674Z,28.60
2022-12-23T07:10:19.900Z,34.83
2022-12-23T07:12:50.677Z,33.38
2022-12-23T07:15:18.301Z,32.25
2022-12-23T07:17:45.423Z,29.92
2022-12-23T07:20:14.293Z,34.17
2022-12-23T07:22:41.565Z,36.28
2022-12-23T07:25:09.363Z,26.60
2022-12-23T07:27:36.420Z,27.73
2022-12-23T07:30:04.140Z,22.90
2022-12-23T07:32:31.378Z,29.45
2022-12-23T07:34:58.440Z,26.05
2022-12-23T07:37:25.602Z,28.05
2022-12-23T07:39:52.784Z,35.65
2022-12-23T07:45:07.769Z,38.03
2022-12-23T07:47:35.408Z,31.63
2022-12-23T07:50:02.462Z,28.17
2022-12-23T07:52:32.461Z,25.48
2022-12-23T07:54:59.569Z,31.95
2022-12-23T07:57:26.688Z,38.92
2022-12-23T07:59:53.909Z,39.25
2022-12-23T08:02:25.110Z,31.27
2022-12-23T08:04:52.564Z,42.60
2022-12-23T08:07:19.745Z,28.77
2022-12-23T08:09:46.883Z,36.92
2022-12-23T08:12:14.341Z,30.63
2022-12-23T08:14:41.465Z,27.90
2022-12-23T08:17:08.896Z,25.13
2022-12-23T08:19:36.269Z,26.88
2022-12-23T08:22:03.639Z,33.88
2022-12-23T08:24:30.773Z,37.78
2022-12-23T08:26:58.359Z,26.00
2022-12-23T08:29:27.231Z,31.95
2022-12-23T08:31:56.169Z,28.65
2022-12-23T08:34:23.261Z,29.85
2022-12-23T08:36:50.381Z,34.03
2022-12-23T08:39:18.093Z,35.78
2022-12-23T08:41:48.045Z,32.33
2022-12-23T08:44:16.945Z,28.13
2022-12-23T08:46:44.765Z,42.30
2022-12-23T08:49:12.088Z,36.08
2022-12-23T08:51:39.917Z,33.42
2022-12-23T08:54:07.622Z,31.15
2022-12-23T08:56:39.211Z,33.17
2022-12-23T08:59:07.537Z,33.13
2022-12-23T09:01:35.320Z,27.30
2022-12-23T09:04:04.755Z,24.05
2022-12-23T09:06:41.236Z,23.58
2022-12-23T09:09:11.308Z,24.90
2022-12-23T09:11:39.156Z,24.35
2022-12-23T09:14:08.701Z,21.30
2022-12-23T09:16:36.430Z,23.85
2022-12-23T09:19:04.717Z,24.23
2022-12-23T09:21:32.023Z,23.23
2022-12-23T09:23:59.063Z,22.35
2022-12-23T09:26:29.852Z,19.48
2022-12-23T09:28:57.924Z,21.95
2022-12-23T09:31:29.263Z,18.50
2022-12-23T09:33:57.817Z,20.55
2022-12-23T09:36:25.080Z,18.90
2022-12-23T09:38:57.664Z,19.23
2022-12-23T09:41:48.876Z,21.23
2022-12-23T09:44:47.375Z,18.30
2022-12-23T09:47:25.221Z,17.17
2022-12-23T09:49:58.608Z,16.77
2022-12-23T09:52:43.579Z,16.38
2022-12-23T09:55:12.188Z,17.13
2022-12-23T09:58:01.040Z,17.60
2022-12-23T10:00:37.371Z,16.70
2022-12-23T10:03:29.503Z,16.90
2022-12-23T10:06:15.955Z,16.63
2022-12-23T10:08:48.090Z,15.95
2022-12-23T10:11:27.844Z,15.90
2022-12-23T10:13:58.892Z,15.65
2022-12-23T10:16:40.476Z,16.88
2022-12-23T10:19:22.244Z,18.45
2022-12-23T10:22:02.034Z,17.98
2022-12-23T10:24:39.156Z,16.45
2022-12-23T10:27:38.460Z,16.50
2022-12-23T10:30:42.435Z,17.58
2022-12-23T10:33:47.081Z,16.92
2022-12-23T10:36:56.214Z,16.13
2022-12-23T10:40:04.109Z,16.63
2022-12-23T10:42:52.062Z,15.85
2022-12-23T10:45:40.559Z,14.70
2022-12-23T10:48:55.478Z,15.20
2022-12-23T10:51:33.272Z,15.55
2022-12-23T10:54:04.048Z,15.55
2022-12-23T10:56:31.847Z,15.15
2022-12-23T10:59:01.213Z,14.57
2022-12-23T11:01:33.375Z,14.90
2022-12-23T11:04:17.416Z,15.70
2022-12-23T11:07:10.682Z,15.48
2022-12-23T11:10:03.349Z,15.68
2022-12-23T11:12:52.627Z,15.70
2022-12-23T11:15:39.599Z,15.73
2022-12-23T11:18:12.571Z,13.85
2022-12-23T11:20:42.648Z,14.80
2022-12-23T11:23:31.844Z,13.40
2022-12-23T11:26:07.399Z,12.88
2022-12-23T11:28:47.033Z,13.57
2022-12-23T11:31:17.040Z,12.80
2022-12-23T11:34:00.144Z,13.32
2022-12-23T11:36:29.817Z,12.35
2022-12-23T11:39:25.893Z,12.52
2022-12-23T11:42:02.755Z,12.93
2022-12-23T11:44:43.449Z,11.90
2022-12-23T11:47:22.973Z,12.50
2022-12-23T11:49:51.658Z,11.90
2022-12-23T11:52:22.872Z,12.45
2022-12-23T11:55:02.418Z,12.95
2022-12-23T11:57:43.801Z,11.98
2022-12-23T12:00:25.657Z,12.70
2022-12-23T12:02:57.153Z,12.82
2022-12-23T12:05:41.634Z,11.88
2022-12-23T12:08:21.624Z,12.82
2022-12-23T12:10:53.174Z,11.88
2022-12-23T12:13:36.896Z,11.73
2022-12-23T12:16:51.445Z,12.52
2022-12-23T12:19:35.828Z,11.60
2022-12-23T12:22:12.889Z,12.60
2022-12-23T12:24:45.325Z,12.95
2022-12-23T12:27:12.836Z,12.70
2022-12-23T12:29:57.691Z,12.63
2022-12-23T12:33:05.285Z,13.40
2022-12-23T12:35:45.621Z,12.60
2022-12-23T12:38:27.277Z,12.75
2022-12-23T12:41:11.439Z,12.77
2022-12-23T12:43:46.667Z,12.48
2022-12-23T12:46:43.033Z,12.90
2022-12-23T12:49:36.078Z,12.13
2022-12-23T12:52:35.264Z,12.45
2022-12-23T12:55:29.997Z,12.55
2022-12-23T12:57:57.380Z,13.30
2022-12-23T13:00:25.494Z,13.82
2022-12-23T13:03:26.399Z,12.95
2022-12-23T13:06:27.047Z,13.63
2022-12-23T13:09:21.469Z,14.35
2022-12-23T13:12:05.674Z,15.25
2022-12-23T13:15:15.746Z,15.07
2022-12-23T13:18:11.576Z,16.33
2022-12-23T13:21:16.292Z,16.85
2022-12-23T13:23:52.096Z,16.48
2022-12-23T13:27:02.586Z,16.60
2022-12-23T13:29:38.384Z,17.27
2022-12-23T13:32:46.054Z,17.23
2022-12-23T13:35:41.480Z,16.80
2022-12-23T13:38:45.189Z,17.00
2022-12-23T13:41:18.253Z,15.10
2022-12-23T13:44:07.504Z,14.07
2022-12-23T13:47:26.752Z,13.85
2022-12-23T13:50:11.684Z,14.38
2022-12-23T13:53:01.715Z,13.30
2022-12-23T13:55:57.688Z,12.57
2022-12-23T13:58:27.503Z,12.85
2022-12-23T14:01:08.216Z,12.68
2022-12-23T14:03:38.812Z,12.75
2022-12-23T14:06:24.669Z,12.85
2022-12-23T14:08:54.357Z,13.90
2022-12-23T14:11:30.419Z,13.48
2022-12-23T14:16:50.779Z,14.07
2022-12-23T14:20:02.359Z,14.23
2022-12-23T14:22:48.372Z,13.30
2022-12-23T14:26:06.115Z,14.15
2022-12-23T14:29:01.747Z,13.77
2022-12-23T14:31:41.622Z,14.23
2022-12-23T14:34:18.005Z,13.30
2022-12-23T14:37:25.306Z,12.88
2022-12-23T14:39:53.747Z,12.00
2022-12-23T14:42:43.367Z,12.65
2022-12-23T14:45:42.715Z,11.73
2022-12-23T14:48:47.835Z,11.80
2022-12-23T14:51:14.943Z,11.10
2022-12-23T14:53:54.435Z,10.73
2022-12-23T14:56:39.395Z,11.38
2022-12-23T15:00:16.117Z,10.85
2022-12-23T15:02:43.325Z,11.82
2022-12-23T15:05:10.901Z,11.73
2022-12-23T15:07:42.482Z,11.93
2022-12-23T15:10:30.249Z,11.48
2022-12-23T15:13:03.048Z,12.15
2022-12-23T15:15:31.411Z,12.30
2022-12-23T15:18:12.808Z,12.30
2022-12-23T15:20:40.849Z,11.30
2022-12-23T15:23:17.993Z,11.77
2022-12-23T15:25:48.106Z,11.07
2022-12-23T15:28:21.970Z,10.90
2022-12-23T15:30:53.908Z,11.50
2022-12-23T15:34:01.551Z,10.85
2022-12-23T15:36:14.356Z,10.18
2022-12-23T15:38:42.000Z,10.45
2022-12-23T15:41:18.695Z,9.95
2022-12-23T15:43:46.796Z,9.45
2022-12-23T15:46:29.078Z,9.88
2022-12-23T15:48:57.380Z,10.10
2022-12-23T15:55:25.370Z,10.27
2022-12-23T15:57:53.080Z,10.23
2022-12-23T16:00:54.887Z,10.15
2022-12-23T16:03:30.434Z,10.20
2022-12-23T16:06:17.541Z,11.13
2022-12-23T16:08:45.839Z,10.55
2022-12-23T16:11:18.801Z,10.20
2022-12-23T16:14:03.044Z,9.95
2022-12-23T16:16:44.687Z,10.77
2022-12-23T16:19:44.060Z,10.00
2022-12-23T16:22:21.101Z,10.73
2022-12-23T16:25:11.619Z,11.23
2022-12-23T16:28:04.060Z,10.25
2022-12-23T16:30:35.666Z,10.05
2022-12-23T16:33:06.933Z,9.80
2022-12-23T16:35:37.188Z,10.02
2022-12-23T16:38:26.350Z,10.20
2022-12-23T16:40:56.301Z,10.48
2022-12-23T16:43:25.212Z,10.27
2022-12-23T16:45:57.675Z,9.85
2022-12-23T16:48:42.493Z,10.40
2022-12-23T16:51:14.305Z,10.10
2022-12-23T16:53:41.556Z,9.95
2022-12-23T16:56:18.126Z,9.95
2022-12-23T16:58:45.844Z,10.27
2022-12-23T17:01:35.977Z,10.05
2022-12-23T17:04:03.270Z,9.07
2022-12-23T17:06:30.837Z,9.60
2022-12-23T17:08:58.297Z,10.10
2022-12-23T17:11:51.207Z,10.18
2022-12-23T17:14:25.184Z,10.18
2022-12-23T17:16:53.120Z,10.07
2022-12-23T17:19:27.635Z,9.77
2022-12-23T17:22:01.647Z,8.98
2022-12-23T17:24:29.025Z,9.40
2022-12-23T17:26:59.369Z,8.90
2022-12-23T17:29:27.171Z,9.25
2022-12-23T17:31:54.763Z,9.27
2022-12-23T17:34:24.357Z,8.48
2022-12-23T17:36:51.818Z,9.15
2022-12-23T17:39:21.320Z,8.73
2022-12-23T17:41:49.444Z,8.48
2022-12-23T17:44:18.143Z,8.88
2022-12-23T17:46:46.054Z,8.70
2022-12-23T17:49:13.479Z,8.80
2022-12-23T17:51:41.510Z,8.90
2022-12-23T17:54:26.267Z,9.50
2022-12-23T17:56:53.448Z,9.27
2022-12-23T17:59:21.687Z,9.60
2022-12-23T18:01:49.205Z,9.40
2022-12-23T18:04:16.518Z,9.43
2022-12-23T18:06:43.707Z,9.93
2022-12-23T18:09:10.873Z,9.48
2022-12-23T18:11:44.867Z,9.43
2022-12-23T18:14:22.711Z,9.30
2022-12-23T18:16:50.090Z,9.25
2022-12-23T18:19:20.640Z,8.93
2022-12-23T18:21:48.581Z,9.93
2022-12-23T18:24:16.165Z,10.25
2022-12-23T18:26:44.073Z,9.43
2022-12-23T18:29:11.245Z,10.23
2022-12-23T18:31:50.893Z,10.25
2022-12-23T18:34:20.380Z,10.05
2022-12-23T18:36:48.477Z,9.45
2022-12-23T18:39:15.924Z,9.95
2022-12-23T18:41:43.243Z,10.60
2022-12-23T18:44:20.517Z,10.13
2022-12-23T18:46:49.280Z,10.48
2022-12-23T18:49:16.584Z,9.65
2022-12-23T18:51:43.764Z,9.95
2022-12-23T18:54:15.888Z,9.75
2022-12-23T18:56:43.875Z,10.60
2022-12-23T18:59:27.539Z,10.20
2022-12-23T19:01:57.344Z,10.50
2022-12-23T19:04:25.439Z,11.48
2022-12-23T19:06:53.376Z,10.05
2022-12-23T19:09:22.696Z,10.50
2022-12-23T19:11:52.905Z,11.13
2022-12-23T19:14:20.459Z,9.65
2022-12-23T19:16:51.448Z,10.75
2022-12-23T19:19:21.178Z,10.32
2022-12-23T19:21:48.576Z,10.55
2022-12-23T19:24:15.795Z,10.77
2022-12-23T19:26:42.966Z,10.70
2022-12-23T19:29:10.439Z,11.57
2022-12-23T19:31:37.599Z,10.80
2022-12-23T19:34:09.752Z,11.60
2022-12-23T19:36:41.706Z,11.57
2022-12-23T19:39:16.382Z,12.00
2022-12-23T19:41:44.713Z,11.23
2022-12-23T19:44:12.000Z,11.95
2022-12-23T19:46:39.189Z,11.63
2022-12-23T19:49:06.581Z,12.52
2022-12-23T19:51:33.829Z,12.40
2022-12-23T19:54:01.157Z,12.65
2022-12-23T19:56:30.400Z,12.60
2022-12-23T19:58:57.606Z,12.40
2022-12-23T20:01:27.319Z,13.02
2022-12-23T20:03:56.194Z,12.65
2022-12-23T20:06:29.565Z,12.27
2022-12-23T20:09:00.882Z,12.35
2022-12-23T20:11:30.718Z,12.50
2022-12-23T20:14:00.488Z,11.98
2022-12-23T20:16:28.608Z,12.00
2022-12-23T20:18:56.754Z,12.77
2022-12-23T20:21:24.272Z,12.23
2022-12-23T20:23:52.826Z,11.57
2022-12-23T20:26:20.613Z,11.75
2022-12-23T20:28:47.767Z,12.18
2022-12-23T20:31:28.083Z,12.50
2022-12-23T20:33:55.999Z,12.82
2022-12-23T20:36:28.970Z,13.18
2022-12-23T20:38:56.918Z,12.85
2022-12-23T20:41:27.760Z,12.68
2022-12-23T20:46:45.598Z,12.48
2022-12-23T20:49:12.849Z,11.95
2022-12-23T20:51:40.066Z,12.23
2022-12-23T20:54:07.328Z,12.68
2022-12-23T20:56:34.547Z,11.18
2022-12-23T20:59:03.802Z,12.65
2022-12-23T21:01:38.051Z,12.93
2022-12-23T21:04:09.529Z,12.77
2022-12-23T21:06:37.173Z,13.02
2022-12-23T21:09:07.359Z,12.90
2022-12-23T21:11:39.738Z,12.15
2022-12-23T21:14:07.961Z,12.80
2022-12-23T21:16:38.102Z,12.55
2022-12-23T21:19:12.854Z,11.88
2022-12-23T21:21:40.039Z,11.80
2022-12-23T21:24:07.256Z,11.02
2022-12-23T21:26:35.425Z,10.63
2022-12-23T21:29:05.796Z,11.15
2022-12-23T21:31:35.679Z,11.27
2022-12-23T21:34:03.362Z,10.68
2022-12-23T21:36:35.034Z,10.35
2022-12-23T21:39:02.839Z,10.20
2022-12-23T21:41:34.097Z,9.73
2022-12-23T21:44:01.491Z,9.93
2022-12-23T21:46:29.308Z,10.00
2022-12-23T21:48:58.255Z,9.93
2022-12-23T21:51:38.536Z,9.52
2022-12-23T21:54:07.327Z,10.73
2022-12-23T21:56:34.946Z,10.55
2022-12-23T21:59:07.211Z,10.95
2022-12-23T22:01:35.269Z,10.85
2022-12-23T22:04:03.154Z,11.00
2022-12-23T22:06:37.493Z,10.38
2022-12-23T22:09:08.788Z,11.40
2022-12-23T22:11:37.627Z,10.77
2022-12-23T22:14:07.574Z,9.70
2022-12-23T22:16:36.120Z,9.98
2022-12-23T22:19:05.953Z,10.55
2022-12-23T22:21:34.601Z,10.10
2022-12-23T22:24:05.904Z,10.10
2022-12-23T22:26:34.132Z,10.48
2022-12-23T22:29:04.741Z,11.38
2022-12-23T22:31:53.009Z,11.95
2022-12-23T22:34:22.583Z,11.15
2022-12-23T22:36:49.855Z,11.50
2022-12-23T22:39:21.059Z,12.40
2022-12-23T22:41:52.510Z,11.63
2022-12-23T22:44:20.507Z,11.90
2022-12-23T22:46:48.066Z,11.18
2022-12-23T22:49:16.030Z,11.77
2022-12-23T22:51:44.174Z,12.25
2022-12-23T22:54:11.320Z,11.80
2022-12-23T22:56:38.516Z,11.95
2022-12-23T22:59:06.058Z,12.95
2022-12-23T23:01:35.871Z,12.32
2022-12-23T23:04:04.380Z,12.23
2022-12-23T23:06:39.380Z,12.15
2022-12-23T23:09:09.903Z,12.50
2022-12-23T23:11:37.056Z,12.18
2022-12-23T23:14:04.822Z,12.57
2022-12-23T23:16:34.752Z,12.85
2022-12-23T23:19:03.953Z,12.25
2022-12-23T23:21:31.622Z,12.10
2022-12-23T23:23:58.630Z,12.23
2022-12-23T23:26:27.447Z,12.52
2022-12-23T23:28:55.680Z,12.45
2022-12-23T23:34:10.872Z,13.07
2022-12-23T23:36:38.248Z,12.85
2022-12-23T23:39:05.506Z,12.63
2022-12-23T23:41:32.798Z,12.88
2022-12-23T23:44:00.033Z,13.00
2022-12-23T23:46:27.303Z,13.85
2022-12-23T23:48:54.329Z,13.02
2022-12-23T23:51:21.438Z,12.88
2022-12-23T23:53:48.678Z,13.27
2022-12-23T23:56:22.069Z,12.77
2022-12-23T23:58:52.344Z,12.93
